Airfield :
LOGIN :

Register | Disclaimer

   EN    FR    IT 

 










Legend :    VFR   Marginal VFR   IFR   Intensive IFR   Very Intensive IFR
Visi :
Ceiling :
>= 8 km
>= 3000ft
5 to 8 km
1000 to 3000 ft
1500m to 5 km
500 to 1000 ft
800 to 1500m
200 to 500 ft
< 800m
< 200 ft
Symbols :   Thunderstorms  Fog  Heavy snow  Heavy precipitations  Wind > 20 kt
SIGMETs :     Misc.  Thunderstorms  Icing  Turbulence  Mountain Waves  Volcanic Ashes






- Airport Elevation : 423 ft
- IATA code : PIS


LFBI - Poitiers

CURRENT METAR :
  • 061800Z AUTO 24009KT CAVOK 16/06 Q1007 NOSIG

EXPIRED METARs :
  • 061730Z AUTO 25010KT CAVOK 17/06 Q1007 NOSIG
  • 061700Z AUTO 25013KT 230V290 CAVOK 17/05 Q1007 NOSIG
  • 061630Z AUTO 25011KT CAVOK 18/07 Q1007 NOSIG
  • 061600Z AUTO 25014KT 9999 FEW049 SCT064 BKN120 18/07 Q1007 NOSIG
  • 061530Z AUTO 25012KT 9999 FEW049 BKN064 18/08 Q1007 NOSIG

TAF TAF LFBI
Valid from the 06 at 18:00 until the 07 at 18:00 UTC


061700Z 0618/0718 27010KT 9999 BKN040
TEMPO 0700/0708 VRB03KT
TEMPO 0712/0718 4000 SHRA FEW030CB BKN040TCU



MET'MAP, your aeronautical weather chart ! - Copyright ORBIFLY December 2007 - Disclaimer

ORBIFLY MET'MAP TEAM :

Programming & Development : Alexandra Zaïnal
Concept & original design : Baudouin d'Aumeries
Assistance for programming : Marc-Olivier Méhu
Technical & hardware support : Manuel Goepfert

Contact : metmap@orbifly.com




SOURCES & CREDITS :

   NOAA